Ellen Mcallister — WDG3673 — position and weather

sailwx.info

Track history (hours):
 
Tides and Currents Weather Stations Pressure Air Temp Water Temp Dewpoint Dewpoint Depression Visibility Wind Speed Wind Dir Waves Ship Positions

Ellen Mcallister

Owner: McAllister Towing & Transportation Inc., Staten Island, NY. More information available from US FCC via Universal Licensing System and Coast Guard Vessel Documentation Center.

Last reported at 2017-Jan-20 05:34 UTC. Time now 2017-Jan-20 05:54 UTC.
Position N 40°39' W 074°04'.

Length 35 m; draft 5 m.

Type: Tug. MMSI: 366836590.

Date/timePositionNaut miles runAvg speedWind from/ knotsBaromVisibWave heightAir tempDewpointWater temp
2017-Jan-20 05:34N 40°39' W 074°04'5 1.2
2017-Jan-20 01:32N 40°41' W 074°09'1 1.1
2017-Jan-20 00:33N 40°41' W 074°08'1 0.8
2017-Jan-19 23:03N 40°40' W 074°09'0 0.2
2017-Jan-19 22:08N 40°40' W 074°09'1 0.3
2017-Jan-19 17:33N 40°41' W 074°08'4 0.8
2017-Jan-19 12:11N 40°38' W 074°12'3 4.5
2017-Jan-19 11:27N 40°40' W 074°09'0 0.1
2017-Jan-19 10:27N 40°40' W 074°08'5 0.4
2017-Jan-18 23:15N 40°38' W 074°03'3 3.7
2017-Jan-18 22:33N 40°40' W 074°04'0 0.1
2017-Jan-18 21:25N 40°40' W 074°04'3 0.7
2017-Jan-18 16:33N 40°40' W 074°09'4 4.2
2017-Jan-18 15:33N 40°39' W 074°03'1 0.6
2017-Jan-18 14:30N 40°38' W 074°04'4 4.4
2017-Jan-18 13:33N 40°40' W 074°08'1 0.7
2017-Jan-18 12:28N 40°41' W 074°09'1 1.0
2017-Jan-18 11:33N 40°40' W 074°08'3 2.0
2017-Jan-18 10:15N 40°39' W 074°05'1 0.1
2017-Jan-18 04:19N 40°39' W 074°04'1 1.2
2017-Jan-18 03:32N 40°40' W 074°05'1 1.2
2017-Jan-18 02:28N 40°39' W 074°05'1 0.0
2017-Jan-17 15:13N 40°39' W 074°04'6 8.4
2017-Jan-17 14:33N 40°44' W 074°01'1 1.4
2017-Jan-17 13:33N 40°43' W 074°01'5 1.6
2017-Jan-17 10:16N 40°39' W 074°06'1 1.7
2017-Jan-17 09:24N 40°38' W 074°04'4 0.4
2017-Jan-16 23:32N 40°40' W 074°09'2 0.7
2017-Jan-16 21:27N 40°41' W 074°08'1 1.6
2017-Jan-16 20:33N 40°40' W 074°09'2 0.7
2017-Jan-16 17:10N 40°39' W 074°05'2 0.2
2017-Jan-16 05:32N 40°40' W 074°08'1 1.1
2017-Jan-16 04:17N 40°41' W 074°09'0 0.0
2017-Jan-16 02:28N 40°41' W 074°09'2 0.1
2017-Jan-15 14:05N 40°40' W 074°09'1 1.6
2017-Jan-15 13:22N 40°41' W 074°09'5 6.6
2017-Jan-15 12:33N 40°38' W 074°03'3 3.3
2017-Jan-15 11:33N 40°39' W 074°07'2 1.6
2017-Jan-15 10:33N 40°40' W 074°09'1 0.1
2017-Jan-14 18:22N 40°39' W 074°09'4 4.5
2017-Jan-14 17:33N 40°40' W 074°04'3 3.0
2017-Jan-14 16:29N 40°37' W 074°03'3 0.2
2017-Jan-14 05:04N 40°39' W 074°05'3 5.1
2017-Jan-14 04:27N 40°39' W 074°09'0 0.0
2017-Jan-14 03:25N 40°39' W 074°09'1 0.2
2017-Jan-13 21:27N 40°40' W 074°08'8 1.3
2017-Jan-13 15:29N 40°42' W 073°59'0 0.4
2017-Jan-13 14:33N 40°42' W 073°59'5 5.5
2017-Jan-13 13:33N 40°38' W 074°04'0 0.2
2017-Jan-13 12:22N 40°38' W 074°04'5 5.4
2017-Jan-13 11:25N 40°41' W 074°09'4 2.3
2017-Jan-13 09:33N 40°40' W 074°04'1 1.0
2017-Jan-13 08:33N 40°40' W 074°05'0 0.0
2017-Jan-13 07:33N 40°40' W 074°05'0 0.0
2017-Jan-13 06:33N 40°40' W 074°05'0 0.0
2017-Jan-13 05:33N 40°40' W 074°05'0 0.0
2017-Jan-13 04:31N 40°40' W 074°05'0 0.0
2017-Jan-13 03:33N 40°40' W 074°05'3 3.2
2017-Jan-13 02:33N 40°41' W 074°01'2 2.4
2017-Jan-13 01:33N 40°43' W 073°59'4 0.2
2017-Jan-12 08:32N 40°40' W 074°02'4 3.6
2017-Jan-12 07:33N 40°42' W 073°58'8 2.5
2017-Jan-12 04:24N 40°41' W 074°08'0 0.2
2017-Jan-12 03:28N 40°40' W 074°08'3 2.6
2017-Jan-12 02:28N 40°39' W 074°06'2 0.8
2017-Jan-11 23:15N 40°40' W 074°09'1 1.1
2017-Jan-11 22:28N 40°40' W 074°08'0 0.0
2017-Jan-11 21:33N 40°40' W 074°08'0 0.3
2017-Jan-11 20:31N 40°41' W 074°09'0 0.1
2017-Jan-11 17:13N 40°41' W 074°09'1 0.7
2017-Jan-11 16:30N 40°40' W 074°08'3 3.3
2017-Jan-11 15:29N 40°39' W 074°04'3 0.3
2017-Jan-11 02:21N 40°40' W 074°08'1 0.7
2017-Jan-11 01:30N 40°40' W 074°09'3 1.1
2017-Jan-10 22:33N 40°40' W 074°04'0 0.0
2017-Jan-10 21:32N 40°40' W 074°04'0 0.0
2017-Jan-10 20:31N 40°40' W 074°04'0 0.0
2017-Jan-10 19:33N 40°40' W 074°04'3 3.1
2017-Jan-10 18:33N 40°41' W 074°01'2 2.0
2017-Jan-10 17:33N 40°42' W 073°58'0 0.0
2017-Jan-10 16:31N 40°42' W 073°58'0 0.0
2017-Jan-10 15:33N 40°42' W 073°58'0 0.0
2017-Jan-10 14:33N 40°42' W 073°58'0 0.0
2017-Jan-10 13:32N 40°42' W 073°58'0 0.0
2017-Jan-10 12:33N 40°42' W 073°59'3 2.6
2017-Jan-10 11:33N 40°42' W 074°02'  
Track history (hours):
 
Tides and Currents Weather Stations Pressure Air Temp Water Temp Dewpoint Dewpoint Depression Visibility Wind Speed Wind Dir Waves Ship Positions

Ellen Mcallister

Owner: McAllister Towing & Transportation Inc., Staten Island, NY. More information available from US FCC via Universal Licensing System and Coast Guard Vessel Documentation Center.

Last reported at 2017-Jan-20 05:34 UTC. Time now 2017-Jan-20 05:54 UTC.
Position N 40°39' W 074°04'.

Length 35 m; draft 5 m.

Type: Tug. MMSI: 366836590.

Date/timePositionNaut miles runAvg speedWind from/ knotsBaromVisibWave heightAir tempDewpointWater temp
2017-Jan-20 05:34N 40°39' W 074°04'5 1.2
2017-Jan-20 01:32N 40°41' W 074°09'1 1.1
2017-Jan-20 00:33N 40°41' W 074°08'1 0.8
2017-Jan-19 23:03N 40°40' W 074°09'0 0.2
2017-Jan-19 22:08N 40°40' W 074°09'1 0.3
2017-Jan-19 17:33N 40°41' W 074°08'4 0.8
2017-Jan-19 12:11N 40°38' W 074°12'3 4.5
2017-Jan-19 11:27N 40°40' W 074°09'0 0.1
2017-Jan-19 10:27N 40°40' W 074°08'5 0.4
2017-Jan-18 23:15N 40°38' W 074°03'3 3.7
2017-Jan-18 22:33N 40°40' W 074°04'0 0.1
2017-Jan-18 21:25N 40°40' W 074°04'3 0.7
2017-Jan-18 16:33N 40°40' W 074°09'4 4.2
2017-Jan-18 15:33N 40°39' W 074°03'1 0.6
2017-Jan-18 14:30N 40°38' W 074°04'4 4.4
2017-Jan-18 13:33N 40°40' W 074°08'1 0.7
2017-Jan-18 12:28N 40°41' W 074°09'1 1.0
2017-Jan-18 11:33N 40°40' W 074°08'3 2.0
2017-Jan-18 10:15N 40°39' W 074°05'1 0.1
2017-Jan-18 04:19N 40°39' W 074°04'1 1.2
2017-Jan-18 03:32N 40°40' W 074°05'1 1.2
2017-Jan-18 02:28N 40°39' W 074°05'1 0.0
2017-Jan-17 15:13N 40°39' W 074°04'6 8.4
2017-Jan-17 14:33N 40°44' W 074°01'1 1.4
2017-Jan-17 13:33N 40°43' W 074°01'5 1.6
2017-Jan-17 10:16N 40°39' W 074°06'1 1.7
2017-Jan-17 09:24N 40°38' W 074°04'4 0.4
2017-Jan-16 23:32N 40°40' W 074°09'2 0.7
2017-Jan-16 21:27N 40°41' W 074°08'1 1.6
2017-Jan-16 20:33N 40°40' W 074°09'2 0.7
2017-Jan-16 17:10N 40°39' W 074°05'2 0.2
2017-Jan-16 05:32N 40°40' W 074°08'1 1.1
2017-Jan-16 04:17N 40°41' W 074°09'0 0.0
2017-Jan-16 02:28N 40°41' W 074°09'2 0.1
2017-Jan-15 14:05N 40°40' W 074°09'1 1.6
2017-Jan-15 13:22N 40°41' W 074°09'5 6.6
2017-Jan-15 12:33N 40°38' W 074°03'3 3.3
2017-Jan-15 11:33N 40°39' W 074°07'2 1.6
2017-Jan-15 10:33N 40°40' W 074°09'1 0.1
2017-Jan-14 18:22N 40°39' W 074°09'4 4.5
2017-Jan-14 17:33N 40°40' W 074°04'3 3.0
2017-Jan-14 16:29N 40°37' W 074°03'3 0.2
2017-Jan-14 05:04N 40°39' W 074°05'3 5.1
2017-Jan-14 04:27N 40°39' W 074°09'0 0.0
2017-Jan-14 03:25N 40°39' W 074°09'1 0.2
2017-Jan-13 21:27N 40°40' W 074°08'8 1.3
2017-Jan-13 15:29N 40°42' W 073°59'0 0.4
2017-Jan-13 14:33N 40°42' W 073°59'5 5.5
2017-Jan-13 13:33N 40°38' W 074°04'0 0.2
2017-Jan-13 12:22N 40°38' W 074°04'5 5.4
2017-Jan-13 11:25N 40°41' W 074°09'4 2.3
2017-Jan-13 09:33N 40°40' W 074°04'1 1.0
2017-Jan-13 08:33N 40°40' W 074°05'0 0.0
2017-Jan-13 07:33N 40°40' W 074°05'0 0.0
2017-Jan-13 06:33N 40°40' W 074°05'0 0.0
2017-Jan-13 05:33N 40°40' W 074°05'0 0.0
2017-Jan-13 04:31N 40°40' W 074°05'0 0.0
2017-Jan-13 03:33N 40°40' W 074°05'3 3.2
2017-Jan-13 02:33N 40°41' W 074°01'2 2.4
2017-Jan-13 01:33N 40°43' W 073°59'4 0.2
2017-Jan-12 08:32N 40°40' W 074°02'4 3.6
2017-Jan-12 07:33N 40°42' W 073°58'8 2.5
2017-Jan-12 04:24N 40°41' W 074°08'0 0.2
2017-Jan-12 03:28N 40°40' W 074°08'3 2.6
2017-Jan-12 02:28N 40°39' W 074°06'2 0.8
2017-Jan-11 23:15N 40°40' W 074°09'1 1.1
2017-Jan-11 22:28N 40°40' W 074°08'0 0.0
2017-Jan-11 21:33N 40°40' W 074°08'0 0.3
2017-Jan-11 20:31N 40°41' W 074°09'0 0.1
2017-Jan-11 17:13N 40°41' W 074°09'1 0.7
2017-Jan-11 16:30N 40°40' W 074°08'3 3.3
2017-Jan-11 15:29N 40°39' W 074°04'3 0.3
2017-Jan-11 02:21N 40°40' W 074°08'1 0.7
2017-Jan-11 01:30N 40°40' W 074°09'3 1.1
2017-Jan-10 22:33N 40°40' W 074°04'0 0.0
2017-Jan-10 21:32N 40°40' W 074°04'0 0.0
2017-Jan-10 20:31N 40°40' W 074°04'0 0.0
2017-Jan-10 19:33N 40°40' W 074°04'3 3.1
2017-Jan-10 18:33N 40°41' W 074°01'2 2.0
2017-Jan-10 17:33N 40°42' W 073°58'0 0.0
2017-Jan-10 16:31N 40°42' W 073°58'0 0.0
2017-Jan-10 15:33N 40°42' W 073°58'0 0.0
2017-Jan-10 14:33N 40°42' W 073°58'0 0.0
2017-Jan-10 13:32N 40°42' W 073°58'0 0.0
2017-Jan-10 12:33N 40°42' W 073°59'3 2.6
2017-Jan-10 11:33N 40°42' W 074°02'  

Dump ship's entire track history